»·PEaware :: SWA1097 KLAS-KSNA

SWA1097 :: KLAS-KSNA

FLIGHT INFORMATION

Flight Status: Arrived
Operator:
Southwest Airlines
More flights by this operator :: More flights under this callsign
Pilot: Adam A. (5112)
Aircraft: BOEING 737-300
(B733)
More flights by this aircraft type
Origin: KLAS McCarran Intl
United States
Destination: KSNA John Wayne-Orange Co
United States
More flights between these airports :: More routes between these airports
Route: +BOACH6 HEC KAYO5
File this flight plan on PilotEdge
Remarks:
Altitude:
(Current/Filed)
28,000ft
Speed:
(Current/Filed)
434kts
Departed: 23-Jun-16 04:26 PM
Arrived: 23-Jun-16 05:08 PM
Distance/Time
Traveled:
197nm/0:42
Distance/Time
To Go:
Arrived

Flight Plot

Page will automatically refresh every two minutes.


Map Options




Map Legend


Flown Route
Filed Route
Departure Airport
Arrival Airport
Navaid (VOR, NDB)
Fix

Horizontal Profiles

Position Reports

Time Latitude Longitude Heading Altitude Ground
Speed
23-Jun-16 15:52 36.079942 -115.147089 57 2189ft 0kts
23-Jun-16 15:53 36.079942 -115.147089 57 2189ft 0kts
23-Jun-16 15:54 36.079942 -115.147089 57 2189ft 0kts
23-Jun-16 15:56 36.079942 -115.147089 57 2189ft 0kts
23-Jun-16 15:56 36.079942 -115.147089 57 2189ft 0kts
23-Jun-16 15:57 36.079942 -115.147089 57 2189ft 0kts
23-Jun-16 15:58 36.079942 -115.147089 57 2189ft 0kts
23-Jun-16 15:59 36.079942 -115.147089 57 2189ft 0kts
23-Jun-16 16:00 36.079942 -115.147089 57 2189ft 0kts
23-Jun-16 16:01 36.079942 -115.147089 57 2189ft 0kts
23-Jun-16 16:02 36.079942 -115.147089 57 2189ft 0kts
23-Jun-16 16:03 36.079942 -115.147089 57 2189ft 0kts
23-Jun-16 16:04 36.079942 -115.147089 57 2189ft 0kts
23-Jun-16 16:05 36.079942 -115.147089 57 2189ft 0kts
23-Jun-16 16:06 36.079942 -115.147089 57 2189ft 0kts
23-Jun-16 16:07 36.079942 -115.147089 57 2189ft 0kts
23-Jun-16 16:08 36.079942 -115.147089 57 2189ft 0kts
23-Jun-16 16:09 36.079942 -115.147089 57 2189ft 0kts
23-Jun-16 16:10 36.079942 -115.147089 57 2189ft 0kts
23-Jun-16 16:11 36.079755 -115.147455 62 2189ft 0kts
23-Jun-16 16:12 36.079891 -115.147935 137 2189ft 0kts
23-Jun-16 16:13 36.079891 -115.147935 137 2189ft 0kts
23-Jun-16 16:14 36.079443 -115.148006 208 2189ft 5kts
23-Jun-16 16:15 36.078695 -115.150200 273 2188ft 11kts
23-Jun-16 16:16 36.080030 -115.154108 333 2189ft 15kts
23-Jun-16 16:17 36.083934 -115.156372 334 2188ft 15kts
23-Jun-16 16:18 36.087853 -115.157477 25 2188ft 16kts
23-Jun-16 16:19 36.092254 -115.154961 22 2189ft 18kts
23-Jun-16 16:20 36.097375 -115.152046 19 2189ft 15kts
23-Jun-16 16:21 36.098152 -115.152856 297 2189ft 9kts
23-Jun-16 16:22 36.086192 -115.160668 205 2189ft 142kts
23-Jun-16 16:23 36.037318 -115.185167 204 3380ft 219kts
23-Jun-16 16:24 35.994733 -115.243635 245 4789ft 254kts
23-Jun-16 16:25 35.951743 -115.314028 199 6746ft 269kts
23-Jun-16 16:26 35.872513 -115.313162 182 8393ft 292kts
23-Jun-16 16:27 35.791509 -115.309529 175 10587ft 299kts
23-Jun-16 16:28 35.703202 -115.297170 178 11537ft 345kts
23-Jun-16 16:29 35.623496 -115.356070 234 13097ft 355kts
23-Jun-16 16:30 35.561271 -115.448805 227 14746ft 372kts
23-Jun-16 16:31 35.490489 -115.543781 227 16346ft 383kts
23-Jun-16 16:32 35.419287 -115.636296 227 18326ft 379kts
23-Jun-16 16:33 35.347396 -115.732097 227 19798ft 388kts
23-Jun-16 16:34 35.274112 -115.829855 228 21218ft 395kts
23-Jun-16 16:35 35.198337 -115.927866 227 22582ft 402kts
23-Jun-16 16:36 35.122510 -116.028668 228 23818ft 410kts
23-Jun-16 16:37 35.045787 -116.131021 228 24953ft 417kts
23-Jun-16 16:38 34.967224 -116.235688 228 25962ft 425kts
23-Jun-16 16:39 34.886959 -116.341768 228 26756ft 435kts
23-Jun-16 16:40 34.804375 -116.450560 228 27470ft 444kts
23-Jun-16 16:41 34.718356 -116.557499 227 26618ft 438kts
23-Jun-16 16:42 34.633416 -116.661796 227 24934ft 439kts
23-Jun-16 16:43 34.542436 -116.771519 226 21716ft 475kts
23-Jun-16 16:44 34.453236 -116.880790 227 19472ft 435kts
23-Jun-16 16:45 34.371258 -116.981177 227 16591ft 423kts
23-Jun-16 16:46 34.291232 -117.078811 227 13955ft 416kts
23-Jun-16 16:47 34.197106 -117.125957 186 13171ft 369kts
23-Jun-16 16:48 34.097127 -117.139543 188 12976ft 364kts
23-Jun-16 16:49 33.997622 -117.154182 188 12269ft 356kts
23-Jun-16 16:50 33.905374 -117.167777 188 10996ft 314kts
23-Jun-16 16:51 33.828026 -117.181110 201 10932ft 264kts
23-Jun-16 16:52 33.779817 -117.242825 257 9415ft 262kts
23-Jun-16 16:53 33.777767 -117.328616 272 8017ft 251kts
23-Jun-16 16:54 33.778597 -117.402804 272 7953ft 209kts
23-Jun-16 16:55 33.779297 -117.473481 272 7996ft 213kts
23-Jun-16 16:56 33.779909 -117.543817 272 7991ft 211kts
23-Jun-16 16:57 33.780464 -117.613776 272 7928ft 210kts
23-Jun-16 16:58 33.780913 -117.681083 271 7016ft 185kts
23-Jun-16 16:59 33.790007 -117.742009 301 4656ft 219kts
23-Jun-16 17:00 33.793627 -117.797847 205 2920ft 159kts
23-Jun-16 17:01 33.755367 -117.817910 207 1940ft 150kts
23-Jun-16 17:02 33.720086 -117.840931 205 1124ft 146kts
23-Jun-16 17:03 33.685826 -117.862428 206 166ft 121kts
23-Jun-16 17:04 33.669101 -117.871480 122 63ft 3kts
23-Jun-16 17:05 33.670096 -117.869951 40 63ft 22kts
23-Jun-16 17:06 33.675218 -117.865781 28 63ft 22kts
23-Jun-16 17:07 33.676496 -117.864157 118 63ft 0kts

Navigation Log

Ident Type
Flight plan parsing failed, navigation log unavailable